sensor_id;sensor_type;location;lat;lon;timestamp;P1;durP1;ratioP1;P2;durP2;ratioP2
69417;SDS011;56610;48.872;2.400;2022-10-30T00:00:27;15.57;;;5.32;;
69417;SDS011;56610;48.872;2.400;2022-10-30T00:02:53;10.60;;;5.13;;
69417;SDS011;56610;48.872;2.400;2022-10-30T00:05:19;10.82;;;5.30;;
69417;SDS011;56610;48.872;2.400;2022-10-30T00:07:45;7.82;;;4.95;;
69417;SDS011;56610;48.872;2.400;2022-10-30T00:10:11;11.05;;;5.65;;
69417;SDS011;56610;48.872;2.400;2022-10-30T00:12:37;8.90;;;5.53;;
69417;SDS011;56610;48.872;2.400;2022-10-30T00:15:03;10.13;;;5.65;;
69417;SDS011;56610;48.872;2.400;2022-10-30T00:17:29;8.82;;;5.72;;
69417;SDS011;56610;48.872;2.400;2022-10-30T00:19:55;11.23;;;5.88;;
69417;SDS011;56610;48.872;2.400;2022-10-30T00:22:20;10.50;;;5.80;;
69417;SDS011;56610;48.872;2.400;2022-10-30T00:24:46;12.02;;;6.38;;
69417;SDS011;56610;48.872;2.400;2022-10-30T00:27:12;12.18;;;7.43;;
69417;SDS011;56610;48.872;2.400;2022-10-30T00:29:37;12.85;;;7.13;;
69417;SDS011;56610;48.872;2.400;2022-10-30T00:32:03;12.13;;;6.75;;
69417;SDS011;56610;48.872;2.400;2022-10-30T00:34:28;12.02;;;6.25;;
69417;SDS011;56610;48.872;2.400;2022-10-30T00:36:54;13.15;;;6.60;;
69417;SDS011;56610;48.872;2.400;2022-10-30T00:39:20;11.40;;;6.28;;
69417;SDS011;56610;48.872;2.400;2022-10-30T00:41:45;12.15;;;5.78;;
69417;SDS011;56610;48.872;2.400;2022-10-30T00:50:34;8.77;;;5.32;;
69417;SDS011;56610;48.872;2.400;2022-10-30T00:55:30;12.38;;;5.63;;
69417;SDS011;56610;48.872;2.400;2022-10-30T00:58:00;8.68;;;5.18;;
69417;SDS011;56610;48.872;2.400;2022-10-30T01:00:28;7.40;;;5.05;;
69417;SDS011;56610;48.872;2.400;2022-10-30T01:02:55;9.32;;;5.47;;
69417;SDS011;56610;48.872;2.400;2022-10-30T01:05:22;9.50;;;5.70;;
69417;SDS011;56610;48.872;2.400;2022-10-30T01:07:51;8.88;;;4.97;;
69417;SDS011;56610;48.872;2.400;2022-10-30T01:10:16;10.50;;;4.32;;
69417;SDS011;56610;48.872;2.400;2022-10-30T01:12:43;13.25;;;5.70;;
69417;SDS011;56610;48.872;2.400;2022-10-30T01:15:09;9.55;;;4.90;;
69417;SDS011;56610;48.872;2.400;2022-10-30T01:17:47;9.83;;;4.90;;
69417;SDS011;56610;48.872;2.400;2022-10-30T01:20:31;10.77;;;5.30;;
69417;SDS011;56610;48.872;2.400;2022-10-30T01:25:59;7.60;;;4.85;;
69417;SDS011;56610;48.872;2.400;2022-10-30T01:34:20;10.88;;;4.70;;
69417;SDS011;56610;48.872;2.400;2022-10-30T01:37:30;9.27;;;5.35;;
69417;SDS011;56610;48.872;2.400;2022-10-30T01:39:52;9.68;;;5.10;;
69417;SDS011;56610;48.872;2.400;2022-10-30T01:45:33;10.80;;;5.05;;
69417;SDS011;56610;48.872;2.400;2022-10-30T01:51:13;8.20;;;4.45;;
69417;SDS011;56610;48.872;2.400;2022-10-30T01:54:22;10.60;;;5.22;;
69417;SDS011;56610;48.872;2.400;2022-10-30T01:57:11;9.07;;;5.28;;
69417;SDS011;56610;48.872;2.400;2022-10-30T01:59:45;12.50;;;5.03;;
69417;SDS011;56610;48.872;2.400;2022-10-30T02:02:15;8.52;;;4.63;;
69417;SDS011;56610;48.872;2.400;2022-10-30T02:04:41;11.40;;;4.40;;
69417;SDS011;56610;48.872;2.400;2022-10-30T02:07:07;7.28;;;4.95;;
69417;SDS011;56610;48.872;2.400;2022-10-30T02:09:35;8.13;;;4.88;;
69417;SDS011;56610;48.872;2.400;2022-10-30T02:12:01;10.95;;;5.53;;
69417;SDS011;56610;48.872;2.400;2022-10-30T02:14:28;9.20;;;4.80;;
69417;SDS011;56610;48.872;2.400;2022-10-30T02:16:57;9.07;;;4.45;;
69417;SDS011;56610;48.872;2.400;2022-10-30T02:19:26;9.93;;;4.78;;
69417;SDS011;56610;48.872;2.400;2022-10-30T02:21:52;9.85;;;4.78;;
69417;SDS011;56610;48.872;2.400;2022-10-30T02:24:18;9.57;;;4.53;;
69417;SDS011;56610;48.872;2.400;2022-10-30T02:26:44;10.15;;;4.57;;
69417;SDS011;56610;48.872;2.400;2022-10-30T02:29:09;9.63;;;4.68;;
69417;SDS011;56610;48.872;2.400;2022-10-30T02:31:35;8.77;;;4.53;;
69417;SDS011;56610;48.872;2.400;2022-10-30T02:34:01;9.88;;;4.85;;
69417;SDS011;56610;48.872;2.400;2022-10-30T02:36:27;8.32;;;4.28;;
69417;SDS011;56610;48.872;2.400;2022-10-30T02:38:53;12.07;;;4.78;;
69417;SDS011;56610;48.872;2.400;2022-10-30T02:41:19;7.88;;;4.18;;
69417;SDS011;56610;48.872;2.400;2022-10-30T02:43:45;8.15;;;4.72;;
69417;SDS011;56610;48.872;2.400;2022-10-30T02:46:11;8.57;;;5.32;;
69417;SDS011;56610;48.872;2.400;2022-10-30T02:48:36;8.57;;;4.25;;
69417;SDS011;56610;48.872;2.400;2022-10-30T02:51:02;8.13;;;4.53;;
69417;SDS011;56610;48.872;2.400;2022-10-30T02:53:28;8.45;;;4.50;;
69417;SDS011;56610;48.872;2.400;2022-10-30T02:55:54;9.07;;;4.45;;
69417;SDS011;56610;48.872;2.400;2022-10-30T02:58:20;11.38;;;4.57;;
69417;SDS011;56610;48.872;2.400;2022-10-30T03:00:46;9.02;;;4.32;;
69417;SDS011;56610;48.872;2.400;2022-10-30T03:03:12;10.93;;;4.20;;
69417;SDS011;56610;48.872;2.400;2022-10-30T03:05:37;8.85;;;4.78;;
69417;SDS011;56610;48.872;2.400;2022-10-30T03:08:03;9.75;;;4.90;;
69417;SDS011;56610;48.872;2.400;2022-10-30T03:10:28;11.82;;;4.40;;
69417;SDS011;56610;48.872;2.400;2022-10-30T03:12:54;9.02;;;4.35;;
69417;SDS011;56610;48.872;2.400;2022-10-30T03:15:20;9.85;;;4.40;;
69417;SDS011;56610;48.872;2.400;2022-10-30T03:17:45;9.07;;;4.00;;
69417;SDS011;56610;48.872;2.400;2022-10-30T03:20:11;7.35;;;4.30;;
69417;SDS011;56610;48.872;2.400;2022-10-30T03:22:37;8.15;;;4.22;;
69417;SDS011;56610;48.872;2.400;2022-10-30T03:25:03;11.98;;;4.60;;
69417;SDS011;56610;48.872;2.400;2022-10-30T03:27:29;11.45;;;4.22;;
69417;SDS011;56610;48.872;2.400;2022-10-30T03:29:55;9.00;;;4.25;;
69417;SDS011;56610;48.872;2.400;2022-10-30T03:32:20;8.10;;;4.22;;
69417;SDS011;56610;48.872;2.400;2022-10-30T03:34:46;8.57;;;4.47;;
69417;SDS011;56610;48.872;2.400;2022-10-30T03:37:11;9.90;;;4.57;;
69417;SDS011;56610;48.872;2.400;2022-10-30T03:39:37;10.85;;;5.00;;
69417;SDS011;56610;48.872;2.400;2022-10-30T03:42:02;9.05;;;4.30;;
69417;SDS011;56610;48.872;2.400;2022-10-30T03:44:28;8.45;;;4.13;;
69417;SDS011;56610;48.872;2.400;2022-10-30T03:46:54;9.00;;;4.43;;
69417;SDS011;56610;48.872;2.400;2022-10-30T03:49:19;10.00;;;4.30;;
69417;SDS011;56610;48.872;2.400;2022-10-30T03:51:45;8.32;;;4.35;;
69417;SDS011;56610;48.872;2.400;2022-10-30T03:54:10;10.48;;;5.03;;
69417;SDS011;56610;48.872;2.400;2022-10-30T03:56:36;8.10;;;4.22;;
69417;SDS011;56610;48.872;2.400;2022-10-30T03:59:01;8.77;;;4.00;;
69417;SDS011;56610;48.872;2.400;2022-10-30T04:01:27;9.35;;;4.60;;
69417;SDS011;56610;48.872;2.400;2022-10-30T04:03:52;8.57;;;4.68;;
69417;SDS011;56610;48.872;2.400;2022-10-30T04:06:18;11.80;;;4.78;;
69417;SDS011;56610;48.872;2.400;2022-10-30T04:08:43;9.05;;;4.68;;
69417;SDS011;56610;48.872;2.400;2022-10-30T04:11:09;7.72;;;4.43;;
69417;SDS011;56610;48.872;2.400;2022-10-30T04:13:35;9.02;;;4.28;;
69417;SDS011;56610;48.872;2.400;2022-10-30T04:16:01;8.02;;;4.30;;
69417;SDS011;56610;48.872;2.400;2022-10-30T04:18:27;8.38;;;4.30;;
69417;SDS011;56610;48.872;2.400;2022-10-30T04:20:53;8.32;;;4.53;;
69417;SDS011;56610;48.872;2.400;2022-10-30T04:23:19;8.15;;;4.63;;
69417;SDS011;56610;48.872;2.400;2022-10-30T04:25:46;6.30;;;4.25;;
69417;SDS011;56610;48.872;2.400;2022-10-30T04:28:12;8.80;;;4.25;;
69417;SDS011;56610;48.872;2.400;2022-10-30T04:30:38;9.35;;;4.20;;
69417;SDS011;56610;48.872;2.400;2022-10-30T04:33:05;9.98;;;4.80;;
69417;SDS011;56610;48.872;2.400;2022-10-30T04:35:34;8.35;;;4.13;;
69417;SDS011;56610;48.872;2.400;2022-10-30T04:38:04;9.18;;;4.50;;
69417;SDS011;56610;48.872;2.400;2022-10-30T04:40:32;7.45;;;4.40;;
69417;SDS011;56610;48.872;2.400;2022-10-30T04:42:59;10.38;;;4.55;;
69417;SDS011;56610;48.872;2.400;2022-10-30T04:45:25;9.23;;;4.50;;
69417;SDS011;56610;48.872;2.400;2022-10-30T04:47:51;9.18;;;4.32;;
69417;SDS011;56610;48.872;2.400;2022-10-30T04:50:17;7.97;;;4.07;;
69417;SDS011;56610;48.872;2.400;2022-10-30T04:52:43;6.47;;;4.05;;
69417;SDS011;56610;48.872;2.400;2022-10-30T04:55:09;9.18;;;4.28;;
69417;SDS011;56610;48.872;2.400;2022-10-30T04:57:35;6.30;;;3.85;;
69417;SDS011;56610;48.872;2.400;2022-10-30T05:00:04;6.15;;;3.70;;
69417;SDS011;56610;48.872;2.400;2022-10-30T05:02:33;7.80;;;4.18;;
69417;SDS011;56610;48.872;2.400;2022-10-30T05:05:00;7.60;;;3.42;;
69417;SDS011;56610;48.872;2.400;2022-10-30T05:07:25;6.78;;;4.10;;
69417;SDS011;56610;48.872;2.400;2022-10-30T05:09:51;8.65;;;4.00;;
69417;SDS011;56610;48.872;2.400;2022-10-30T05:12:16;10.80;;;4.47;;
69417;SDS011;56610;48.872;2.400;2022-10-30T05:14:43;9.48;;;3.80;;
69417;SDS011;56610;48.872;2.400;2022-10-30T05:17:09;8.32;;;4.10;;
69417;SDS011;56610;48.872;2.400;2022-10-30T05:19:34;7.53;;;3.83;;
69417;SDS011;56610;48.872;2.400;2022-10-30T05:22:00;8.07;;;3.90;;
69417;SDS011;56610;48.872;2.400;2022-10-30T05:24:25;9.88;;;4.45;;
69417;SDS011;56610;48.872;2.400;2022-10-30T05:26:51;7.70;;;3.75;;
69417;SDS011;56610;48.872;2.400;2022-10-30T05:29:16;8.52;;;3.72;;
69417;SDS011;56610;48.872;2.400;2022-10-30T05:31:42;6.63;;;3.50;;
69417;SDS011;56610;48.872;2.400;2022-10-30T05:34:07;6.50;;;3.60;;
69417;SDS011;56610;48.872;2.400;2022-10-30T05:36:33;6.57;;;3.80;;
69417;SDS011;56610;48.872;2.400;2022-10-30T05:38:58;10.82;;;4.35;;
69417;SDS011;56610;48.872;2.400;2022-10-30T05:41:24;7.40;;;4.18;;
69417;SDS011;56610;48.872;2.400;2022-10-30T05:43:49;9.10;;;3.95;;
69417;SDS011;56610;48.872;2.400;2022-10-30T05:46:15;6.53;;;3.50;;
69417;SDS011;56610;48.872;2.400;2022-10-30T05:48:40;7.88;;;3.80;;
69417;SDS011;56610;48.872;2.400;2022-10-30T05:51:06;9.80;;;3.83;;
69417;SDS011;56610;48.872;2.400;2022-10-30T05:53:32;6.88;;;4.47;;
69417;SDS011;56610;48.872;2.400;2022-10-30T05:55:58;10.00;;;4.18;;
69417;SDS011;56610;48.872;2.400;2022-10-30T05:58:24;11.00;;;4.05;;
69417;SDS011;56610;48.872;2.400;2022-10-30T06:00:50;8.48;;;3.67;;
69417;SDS011;56610;48.872;2.400;2022-10-30T06:03:16;7.22;;;4.00;;
69417;SDS011;56610;48.872;2.400;2022-10-30T06:05:43;6.00;;;3.70;;
69417;SDS011;56610;48.872;2.400;2022-10-30T06:08:10;6.65;;;3.90;;
69417;SDS011;56610;48.872;2.400;2022-10-30T06:10:36;7.57;;;4.00;;
69417;SDS011;56610;48.872;2.400;2022-10-30T06:13:02;7.25;;;3.83;;
69417;SDS011;56610;48.872;2.400;2022-10-30T06:15:29;8.23;;;3.78;;
69417;SDS011;56610;48.872;2.400;2022-10-30T06:17:55;6.00;;;3.75;;
69417;SDS011;56610;48.872;2.400;2022-10-30T06:20:22;8.32;;;3.70;;
69417;SDS011;56610;48.872;2.400;2022-10-30T06:22:56;6.80;;;3.58;;
69417;SDS011;56610;48.872;2.400;2022-10-30T06:25:27;5.75;;;3.80;;
69417;SDS011;56610;48.872;2.400;2022-10-30T06:27:54;8.57;;;3.58;;
69417;SDS011;56610;48.872;2.400;2022-10-30T06:30:20;8.13;;;4.03;;
69417;SDS011;56610;48.872;2.400;2022-10-30T06:32:46;6.68;;;3.75;;
69417;SDS011;56610;48.872;2.400;2022-10-30T06:35:12;7.68;;;3.80;;
69417;SDS011;56610;48.872;2.400;2022-10-30T06:37:43;7.78;;;3.80;;
69417;SDS011;56610;48.872;2.400;2022-10-30T06:40:12;6.60;;;3.88;;
69417;SDS011;56610;48.872;2.400;2022-10-30T06:42:44;6.97;;;3.42;;
69417;SDS011;56610;48.872;2.400;2022-10-30T06:45:11;5.38;;;3.70;;
69417;SDS011;56610;48.872;2.400;2022-10-30T06:47:58;7.35;;;4.47;;
69417;SDS011;56610;48.872;2.400;2022-10-30T06:50:24;7.30;;;4.03;;
69417;SDS011;56610;48.872;2.400;2022-10-30T06:52:50;6.60;;;4.30;;
69417;SDS011;56610;48.872;2.400;2022-10-30T06:55:15;6.85;;;4.18;;
69417;SDS011;56610;48.872;2.400;2022-10-30T06:57:41;6.78;;;3.67;;
69417;SDS011;56610;48.872;2.400;2022-10-30T07:00:07;6.88;;;4.03;;
69417;SDS011;56610;48.872;2.400;2022-10-30T07:02:33;7.05;;;4.15;;
69417;SDS011;56610;48.872;2.400;2022-10-30T07:04:59;8.27;;;3.83;;
69417;SDS011;56610;48.872;2.400;2022-10-30T07:07:25;7.40;;;3.85;;
69417;SDS011;56610;48.872;2.400;2022-10-30T07:09:50;6.03;;;4.10;;
69417;SDS011;56610;48.872;2.400;2022-10-30T07:12:16;7.90;;;4.05;;
69417;SDS011;56610;48.872;2.400;2022-10-30T07:14:41;7.32;;;3.97;;
69417;SDS011;56610;48.872;2.400;2022-10-30T07:17:07;6.38;;;4.03;;
69417;SDS011;56610;48.872;2.400;2022-10-30T07:19:33;8.82;;;3.55;;
69417;SDS011;56610;48.872;2.400;2022-10-30T07:21:59;7.20;;;3.85;;
69417;SDS011;56610;48.872;2.400;2022-10-30T07:24:25;10.57;;;4.30;;
69417;SDS011;56610;48.872;2.400;2022-10-30T07:26:51;8.77;;;3.92;;
69417;SDS011;56610;48.872;2.400;2022-10-30T07:29:17;7.53;;;3.75;;
69417;SDS011;56610;48.872;2.400;2022-10-30T07:31:44;10.05;;;4.32;;
69417;SDS011;56610;48.872;2.400;2022-10-30T07:34:11;9.52;;;4.97;;
69417;SDS011;56610;48.872;2.400;2022-10-30T07:36:36;6.93;;;4.35;;
69417;SDS011;56610;48.872;2.400;2022-10-30T07:39:02;10.20;;;4.28;;
69417;SDS011;56610;48.872;2.400;2022-10-30T07:41:27;7.82;;;4.15;;
69417;SDS011;56610;48.872;2.400;2022-10-30T07:43:53;8.68;;;4.88;;
69417;SDS011;56610;48.872;2.400;2022-10-30T07:46:19;8.68;;;4.13;;
69417;SDS011;56610;48.872;2.400;2022-10-30T07:48:44;6.85;;;4.05;;
69417;SDS011;56610;48.872;2.400;2022-10-30T07:51:10;6.40;;;4.30;;
69417;SDS011;56610;48.872;2.400;2022-10-30T07:53:35;9.13;;;4.35;;
69417;SDS011;56610;48.872;2.400;2022-10-30T07:56:01;7.00;;;4.00;;
69417;SDS011;56610;48.872;2.400;2022-10-30T07:58:26;7.90;;;4.15;;
69417;SDS011;56610;48.872;2.400;2022-10-30T08:00:52;6.80;;;4.03;;
69417;SDS011;56610;48.872;2.400;2022-10-30T08:03:18;6.80;;;3.65;;
69417;SDS011;56610;48.872;2.400;2022-10-30T08:05:43;6.65;;;3.60;;
69417;SDS011;56610;48.872;2.400;2022-10-30T08:08:09;7.63;;;3.70;;
69417;SDS011;56610;48.872;2.400;2022-10-30T08:10:34;5.70;;;3.97;;
69417;SDS011;56610;48.872;2.400;2022-10-30T08:13:00;6.55;;;3.65;;
69417;SDS011;56610;48.872;2.400;2022-10-30T08:15:26;6.63;;;4.10;;
69417;SDS011;56610;48.872;2.400;2022-10-30T08:17:52;7.95;;;4.13;;
69417;SDS011;56610;48.872;2.400;2022-10-30T08:20:19;6.75;;;3.55;;
69417;SDS011;56610;48.872;2.400;2022-10-30T08:25:12;7.82;;;3.72;;
69417;SDS011;56610;48.872;2.400;2022-10-30T08:27:39;5.03;;;3.50;;
69417;SDS011;56610;48.872;2.400;2022-10-30T08:30:17;5.55;;;3.45;;
69417;SDS011;56610;48.872;2.400;2022-10-30T08:32:43;6.30;;;3.97;;
69417;SDS011;56610;48.872;2.400;2022-10-30T08:35:09;9.02;;;4.05;;
69417;SDS011;56610;48.872;2.400;2022-10-30T08:37:34;6.68;;;3.72;;
69417;SDS011;56610;48.872;2.400;2022-10-30T08:40:00;10.90;;;4.15;;
69417;SDS011;56610;48.872;2.400;2022-10-30T08:42:25;6.90;;;4.00;;
69417;SDS011;56610;48.872;2.400;2022-10-30T08:44:51;5.68;;;3.67;;
69417;SDS011;56610;48.872;2.400;2022-10-30T08:47:17;6.07;;;3.75;;
69417;SDS011;56610;48.872;2.400;2022-10-30T08:49:43;7.53;;;4.07;;
69417;SDS011;56610;48.872;2.400;2022-10-30T08:52:08;6.95;;;3.95;;
69417;SDS011;56610;48.872;2.400;2022-10-30T08:54:34;7.22;;;3.88;;
69417;SDS011;56610;48.872;2.400;2022-10-30T08:57:00;6.63;;;4.18;;
69417;SDS011;56610;48.872;2.400;2022-10-30T08:59:26;6.45;;;4.03;;
69417;SDS011;56610;48.872;2.400;2022-10-30T09:01:51;8.13;;;4.05;;
69417;SDS011;56610;48.872;2.400;2022-10-30T09:04:17;7.78;;;4.07;;
69417;SDS011;56610;48.872;2.400;2022-10-30T09:06:43;8.00;;;4.10;;
69417;SDS011;56610;48.872;2.400;2022-10-30T09:09:08;7.35;;;3.53;;
69417;SDS011;56610;48.872;2.400;2022-10-30T09:11:34;7.88;;;4.35;;
69417;SDS011;56610;48.872;2.400;2022-10-30T09:13:59;5.80;;;3.90;;
69417;SDS011;56610;48.872;2.400;2022-10-30T09:16:25;7.70;;;3.78;;
69417;SDS011;56610;48.872;2.400;2022-10-30T09:18:50;8.93;;;3.80;;
69417;SDS011;56610;48.872;2.400;2022-10-30T09:21:16;6.75;;;4.43;;
69417;SDS011;56610;48.872;2.400;2022-10-30T09:23:42;6.78;;;4.00;;
69417;SDS011;56610;48.872;2.400;2022-10-30T09:26:08;7.55;;;3.92;;
69417;SDS011;56610;48.872;2.400;2022-10-30T09:28:34;9.02;;;4.10;;
69417;SDS011;56610;48.872;2.400;2022-10-30T09:31:00;8.65;;;4.60;;
69417;SDS011;56610;48.872;2.400;2022-10-30T09:33:26;8.20;;;4.70;;
69417;SDS011;56610;48.872;2.400;2022-10-30T09:35:52;6.65;;;4.22;;
69417;SDS011;56610;48.872;2.400;2022-10-30T09:38:17;6.85;;;4.28;;
69417;SDS011;56610;48.872;2.400;2022-10-30T09:43:37;7.40;;;4.45;;
69417;SDS011;56610;48.872;2.400;2022-10-30T09:49:07;9.25;;;3.80;;
69417;SDS011;56610;48.872;2.400;2022-10-30T10:00:12;8.82;;;4.63;;
69417;SDS011;56610;48.872;2.400;2022-10-30T10:05:55;11.32;;;3.80;;
69417;SDS011;56610;48.872;2.400;2022-10-30T10:08:26;8.32;;;3.72;;
69417;SDS011;56610;48.872;2.400;2022-10-30T10:11:05;8.77;;;3.80;;
69417;SDS011;56610;48.872;2.400;2022-10-30T10:13:41;9.88;;;4.05;;
69417;SDS011;56610;48.872;2.400;2022-10-30T10:16:18;6.50;;;3.40;;
69417;SDS011;56610;48.872;2.400;2022-10-30T10:18:50;8.57;;;3.60;;
69417;SDS011;56610;48.872;2.400;2022-10-30T10:21:42;9.50;;;3.92;;
69417;SDS011;56610;48.872;2.400;2022-10-30T10:24:13;7.38;;;3.28;;
69417;SDS011;56610;48.872;2.400;2022-10-30T10:26:53;6.97;;;3.53;;
69417;SDS011;56610;48.872;2.400;2022-10-30T10:29:39;6.60;;;3.45;;
69417;SDS011;56610;48.872;2.400;2022-10-30T10:37:37;8.80;;;3.53;;
69417;SDS011;56610;48.872;2.400;2022-10-30T10:48:13;8.88;;;3.72;;
69417;SDS011;56610;48.872;2.400;2022-10-30T10:51:05;5.30;;;3.45;;
69417;SDS011;56610;48.872;2.400;2022-10-30T10:53:57;7.47;;;3.40;;
69417;SDS011;56610;48.872;2.400;2022-10-30T10:56:30;12.32;;;3.53;;
69417;SDS011;56610;48.872;2.400;2022-10-30T10:59:20;7.63;;;3.22;;
69417;SDS011;56610;48.872;2.400;2022-10-30T11:01:54;5.78;;;3.30;;
69417;SDS011;56610;48.872;2.400;2022-10-30T11:04:42;6.60;;;3.70;;
69417;SDS011;56610;48.872;2.400;2022-10-30T11:07:22;9.68;;;3.80;;
69417;SDS011;56610;48.872;2.400;2022-10-30T11:09:54;7.57;;;3.65;;
69417;SDS011;56610;48.872;2.400;2022-10-30T11:12:28;5.30;;;3.15;;
69417;SDS011;56610;48.872;2.400;2022-10-30T11:14:58;6.50;;;3.15;;
69417;SDS011;56610;48.872;2.400;2022-10-30T11:17:41;9.00;;;3.53;;
69417;SDS011;56610;48.872;2.400;2022-10-30T11:20:20;7.88;;;3.97;;
69417;SDS011;56610;48.872;2.400;2022-10-30T11:22:52;10.60;;;4.15;;
69417;SDS011;56610;48.872;2.400;2022-10-30T11:27:45;9.98;;;4.50;;
69417;SDS011;56610;48.872;2.400;2022-10-30T11:30:17;12.15;;;3.92;;
69417;SDS011;56610;48.872;2.400;2022-10-30T11:32:44;11.95;;;4.50;;
69417;SDS011;56610;48.872;2.400;2022-10-30T11:35:12;8.32;;;3.58;;
69417;SDS011;56610;48.872;2.400;2022-10-30T11:37:40;10.57;;;3.95;;
69417;SDS011;56610;48.872;2.400;2022-10-30T11:42:35;12.65;;;4.70;;
69417;SDS011;56610;48.872;2.400;2022-10-30T11:45:04;9.50;;;4.63;;
69417;SDS011;56610;48.872;2.400;2022-10-30T11:47:37;9.60;;;4.40;;
69417;SDS011;56610;48.872;2.400;2022-10-30T11:50:03;8.13;;;4.50;;
69417;SDS011;56610;48.872;2.400;2022-10-30T11:52:34;8.52;;;3.90;;
69417;SDS011;56610;48.872;2.400;2022-10-30T11:55:13;7.88;;;3.97;;
69417;SDS011;56610;48.872;2.400;2022-10-30T11:57:43;8.60;;;4.40;;
69417;SDS011;56610;48.872;2.400;2022-10-30T12:02:45;9.90;;;4.38;;
69417;SDS011;56610;48.872;2.400;2022-10-30T12:10:34;14.10;;;5.28;;
69417;SDS011;56610;48.872;2.400;2022-10-30T12:13:04;9.90;;;4.85;;
69417;SDS011;56610;48.872;2.400;2022-10-30T12:15:34;9.15;;;4.60;;
69417;SDS011;56610;48.872;2.400;2022-10-30T12:18:02;11.18;;;4.88;;
69417;SDS011;56610;48.872;2.400;2022-10-30T12:20:30;9.25;;;5.38;;
69417;SDS011;56610;48.872;2.400;2022-10-30T12:22:57;11.10;;;5.67;;
69417;SDS011;56610;48.872;2.400;2022-10-30T12:25:32;15.43;;;7.22;;
69417;SDS011;56610;48.872;2.400;2022-10-30T12:28:04;10.20;;;4.95;;
69417;SDS011;56610;48.872;2.400;2022-10-30T12:30:34;8.00;;;5.07;;
69417;SDS011;56610;48.872;2.400;2022-10-30T12:33:22;7.75;;;4.28;;
69417;SDS011;56610;48.872;2.400;2022-10-30T12:36:15;5.32;;;2.97;;
69417;SDS011;56610;48.872;2.400;2022-10-30T12:38:45;5.80;;;3.47;;
69417;SDS011;56610;48.872;2.400;2022-10-30T12:41:18;7.47;;;4.10;;
69417;SDS011;56610;48.872;2.400;2022-10-30T12:49:16;6.30;;;3.72;;
69417;SDS011;56610;48.872;2.400;2022-10-30T12:57:46;5.05;;;3.35;;
69417;SDS011;56610;48.872;2.400;2022-10-30T13:00:18;7.07;;;3.30;;
69417;SDS011;56610;48.872;2.400;2022-10-30T13:02:49;4.82;;;3.47;;
69417;SDS011;56610;48.872;2.400;2022-10-30T13:08:18;5.35;;;3.17;;
69417;SDS011;56610;48.872;2.400;2022-10-30T13:10:51;4.93;;;2.80;;
69417;SDS011;56610;48.872;2.400;2022-10-30T13:13:20;7.63;;;3.00;;
69417;SDS011;56610;48.872;2.400;2022-10-30T13:15:49;7.47;;;2.85;;
69417;SDS011;56610;48.872;2.400;2022-10-30T13:18:26;6.55;;;2.75;;
69417;SDS011;56610;48.872;2.400;2022-10-30T13:21:03;5.22;;;2.90;;
69417;SDS011;56610;48.872;2.400;2022-10-30T13:26:40;7.75;;;2.80;;
69417;SDS011;56610;48.872;2.400;2022-10-30T13:29:31;5.70;;;2.63;;
69417;SDS011;56610;48.872;2.400;2022-10-30T13:32:08;6.05;;;2.60;;
69417;SDS011;56610;48.872;2.400;2022-10-30T13:35:12;6.82;;;3.20;;
69417;SDS011;56610;48.872;2.400;2022-10-30T13:38:05;4.67;;;2.97;;
69417;SDS011;56610;48.872;2.400;2022-10-30T13:44:03;5.15;;;2.20;;
69417;SDS011;56610;48.872;2.400;2022-10-30T13:52:23;3.65;;;1.75;;
69417;SDS011;56610;48.872;2.400;2022-10-30T13:54:58;3.85;;;2.10;;
69417;SDS011;56610;48.872;2.400;2022-10-30T13:57:42;3.20;;;1.90;;
69417;SDS011;56610;48.872;2.400;2022-10-30T14:05:46;4.05;;;1.70;;
69417;SDS011;56610;48.872;2.400;2022-10-30T14:10:59;3.92;;;1.60;;
69417;SDS011;56610;48.872;2.400;2022-10-30T14:13:26;5.35;;;1.88;;
69417;SDS011;56610;48.872;2.400;2022-10-30T14:15:52;3.80;;;1.95;;
69417;SDS011;56610;48.872;2.400;2022-10-30T14:18:28;4.55;;;1.70;;
69417;SDS011;56610;48.872;2.400;2022-10-30T14:20:55;2.47;;;1.48;;
69417;SDS011;56610;48.872;2.400;2022-10-30T14:28:29;4.65;;;1.70;;
69417;SDS011;56610;48.872;2.400;2022-10-30T14:31:07;4.38;;;1.90;;
69417;SDS011;56610;48.872;2.400;2022-10-30T14:36:12;5.10;;;2.25;;
69417;SDS011;56610;48.872;2.400;2022-10-30T14:38:40;2.78;;;1.73;;
69417;SDS011;56610;48.872;2.400;2022-10-30T14:41:10;3.40;;;1.90;;
69417;SDS011;56610;48.872;2.400;2022-10-30T14:52:10;4.40;;;2.00;;
69417;SDS011;56610;48.872;2.400;2022-10-30T14:54:55;5.53;;;2.67;;
69417;SDS011;56610;48.872;2.400;2022-10-30T14:57:42;4.97;;;2.13;;
69417;SDS011;56610;48.872;2.400;2022-10-30T15:08:27;3.83;;;1.95;;
69417;SDS011;56610;48.872;2.400;2022-10-30T15:13:31;3.05;;;1.55;;
69417;SDS011;56610;48.872;2.400;2022-10-30T15:16:00;2.97;;;1.60;;
69417;SDS011;56610;48.872;2.400;2022-10-30T15:18:28;3.50;;;1.90;;
69417;SDS011;56610;48.872;2.400;2022-10-30T15:20:54;5.00;;;2.05;;
69417;SDS011;56610;48.872;2.400;2022-10-30T15:23:28;6.05;;;1.95;;
69417;SDS011;56610;48.872;2.400;2022-10-30T15:25:58;4.43;;;2.40;;
69417;SDS011;56610;48.872;2.400;2022-10-30T15:28:33;3.47;;;2.30;;
69417;SDS011;56610;48.872;2.400;2022-10-30T15:31:07;5.57;;;2.50;;
69417;SDS011;56610;48.872;2.400;2022-10-30T15:33:41;2.75;;;2.30;;
69417;SDS011;56610;48.872;2.400;2022-10-30T15:36:40;5.00;;;1.73;;
69417;SDS011;56610;48.872;2.400;2022-10-30T15:39:14;4.68;;;2.70;;
69417;SDS011;56610;48.872;2.400;2022-10-30T15:44:19;4.72;;;2.40;;
69417;SDS011;56610;48.872;2.400;2022-10-30T15:46:51;7.13;;;2.72;;
69417;SDS011;56610;48.872;2.400;2022-10-30T15:52:02;5.28;;;2.60;;
69417;SDS011;56610;48.872;2.400;2022-10-30T15:54:37;6.22;;;2.80;;
69417;SDS011;56610;48.872;2.400;2022-10-30T15:57:05;3.47;;;2.50;;
69417;SDS011;56610;48.872;2.400;2022-10-30T15:59:38;4.30;;;2.58;;
69417;SDS011;56610;48.872;2.400;2022-10-30T16:02:15;4.45;;;2.42;;
69417;SDS011;56610;48.872;2.400;2022-10-30T16:04:47;4.22;;;2.42;;
69417;SDS011;56610;48.872;2.400;2022-10-30T16:09:54;5.03;;;2.30;;
69417;SDS011;56610;48.872;2.400;2022-10-30T16:12:28;4.07;;;2.63;;
69417;SDS011;56610;48.872;2.400;2022-10-30T16:14:55;4.93;;;2.80;;
69417;SDS011;56610;48.872;2.400;2022-10-30T16:17:23;6.38;;;2.88;;
69417;SDS011;56610;48.872;2.400;2022-10-30T16:19:50;6.32;;;2.45;;
69417;SDS011;56610;48.872;2.400;2022-10-30T16:22:23;4.22;;;2.35;;
69417;SDS011;56610;48.872;2.400;2022-10-30T16:24:52;4.90;;;2.80;;
69417;SDS011;56610;48.872;2.400;2022-10-30T16:27:20;5.40;;;2.88;;
69417;SDS011;56610;48.872;2.400;2022-10-30T16:29:48;5.75;;;2.53;;
69417;SDS011;56610;48.872;2.400;2022-10-30T16:32:19;4.88;;;2.85;;
69417;SDS011;56610;48.872;2.400;2022-10-30T16:34:49;4.43;;;2.70;;
69417;SDS011;56610;48.872;2.400;2022-10-30T16:37:23;5.45;;;2.78;;
69417;SDS011;56610;48.872;2.400;2022-10-30T16:39:57;3.85;;;2.65;;
69417;SDS011;56610;48.872;2.400;2022-10-30T16:44:52;3.90;;;2.63;;
69417;SDS011;56610;48.872;2.400;2022-10-30T16:47:29;4.68;;;2.80;;
69417;SDS011;56610;48.872;2.400;2022-10-30T16:49:56;4.07;;;2.70;;
69417;SDS011;56610;48.872;2.400;2022-10-30T16:52:26;6.15;;;2.88;;
69417;SDS011;56610;48.872;2.400;2022-10-30T16:55:00;5.95;;;3.75;;
69417;SDS011;56610;48.872;2.400;2022-10-30T16:57:30;5.60;;;3.05;;
69417;SDS011;56610;48.872;2.400;2022-10-30T16:59:58;4.47;;;2.70;;
69417;SDS011;56610;48.872;2.400;2022-10-30T17:02:26;3.47;;;2.20;;
69417;SDS011;56610;48.872;2.400;2022-10-30T17:04:54;5.38;;;2.92;;
69417;SDS011;56610;48.872;2.400;2022-10-30T17:07:26;4.40;;;2.58;;
69417;SDS011;56610;48.872;2.400;2022-10-30T17:09:53;3.60;;;2.35;;
69417;SDS011;56610;48.872;2.400;2022-10-30T17:12:21;4.45;;;2.50;;
69417;SDS011;56610;48.872;2.400;2022-10-30T17:15:01;3.63;;;2.05;;
69417;SDS011;56610;48.872;2.400;2022-10-30T17:17:33;3.08;;;2.30;;
69417;SDS011;56610;48.872;2.400;2022-10-30T17:22:36;3.60;;;2.10;;